Fort Pierre, SD

3:05 PM MDT on July 25, 2014 (GMT -0600)
Pierre Regional (KPIR) Elev 1742 ft | 44.38 °N, 100.29 °W | Change Station

Current weather conditions updated 12 minutes ago

Clear
Clear
88 °F
Feels Like 88 °F
N
12
Wind Variable Wind from North
Gusts 20 mph

Today is forecast to be Much Cooler than yesterday.

Today
High -- | Low -- °F
--% Chance of Precip.
Yesterday
High -- | Low -- °F
Precip. -- in
5:20 AM 8:13 PM
Waning Crescent, 1% visible
Pressure 29.77 in
Visibility 10.0 miles
Clouds Clear
Dew Point 46 °F
Humidity 23%
Rainfall 0.00 in
Snow Depth Not available.
UV 9 out of 12
Pollen 7.00 out of 12
Air Quality Not available.
Flu Activity Not available.
METAR KPIR 252053Z AUTO 36010G17KT 10SM CLR 31/08 A2982 RMK AO2 SLP079 T03110078 56007

More Conditions Fewer Conditions

Pressure 29.77 in
Visibility 10.0 miles
Clouds Clear
Dew Point 46 °F
Humidity 23%
Rainfall 0.00 in
Snow Depth Not available.
UV 9 out of 12
Pollen 7.00 out of 12
Air Quality Not available.
Flu Activity Not available.
METAR KPIR 252053Z AUTO 36010G17KT 10SM CLR 31/08 A2982 RMK AO2 SLP079 T03110078 56007

More Conditions Fewer Conditions

10-Day Weather Forecast

Almanac

Astronomy

Jul. 25, 2014 Rise Set
Actual Time 5:20 AM MDT 8:13 PM MDT
Civil Twilight 4:46 AM MDT 8:47 PM MDT
Nautical Twilight 4:03 AM MDT 9:31 PM MDT
Astronomical Twilight 3:12 AM MDT 10:21 PM MDT
Moon 4:23 AM MDT 7:09 PM MDT
Length of Visible Light 16h 01m
Length of Day
14h 53m
Tomorrow will be 2m 7s shorter.
Waning Crescent, 1% of the Moon is Illuminated
Today
Waning Crescent
Jul 26
New
Aug 3
First Quarter
Aug 10
Full
Aug 17
Last Quarter

Today's Extremes

State Highs State Lows

Community

WunderPhotos

Upload Photos

1,737,402 photos uploaded!

Nearby

Snow Depth

Station Depth Elevation
Blind Park 0 in 6890 ft

Earthquake Activity

City Distance Mag. Time & Date
No recent earthquake activity has been reported nearby.
Minimum magnitude displayed is 2.5.

Coastal Water Temperatures

Place Temperature
No Stations Reporting

Nearby Weather Stations

Station Location Temp. Heat Index Dew Point Humidity Wind Precip. Elev Updated Type
2 miles north of airport, Pierre, SD 91.1 °F 90 °F 58 °F 33% NNE  at  9.0 mph 0.00 in / hr 1818 ft 4:05 PM CDT Rapid Fire
East of Hospital; Pierre, SD, Pierre, SD 90.9 °F 88 °F 48 °F 23% NNW  at  3.0 mph 0.00 in / hr 1430 ft 4:05 PM CDT Normal
Near Jefferson School, Pierre, SD 87.6 °F 85 °F 51 °F 29% SW  at  2.2 mph - / hr 1588 ft 4:04 PM CDT Normal
HADS MISSOURI RIVER AT PIERRE SD, Fort Pierre, SD 87 °F 84 °F - - North  at  - 0.00 in / hr 1414 ft 2:15 PM MDT MADIS
HADS BAD RIVER NEAR FORT PIERRE SD, Fort Pierre, SD 87 °F 84 °F - - North  at  - 0.00 in / hr 1430 ft 2:30 PM MDT MADIS
RAWS FORT PIERRE SD, Vivian, SD 87 °F 84 °F 47 °F 25% North  at  15 mph 0.00 in / hr 2273 ft 2:59 PM CDT MADIS

Show More Stations Show Fewer Stations